Terminal Aerodrome Forecast
Issued by NWS

Home | Current Version | Previous Version | Text Only | Print | Product List | Glossary On
Versions: 1 2 3 4 5 6 7 8 9 10 11 12 13 14 15 16 17 18 19
877
FTUS44 KBMX 252326
TAFMGM
TAF
KMGM 252326Z 2600/2624 29005KT P6SM SCT040
     FM261000 00000KT 5SM BR SCT015
     FM261300 34005KT P6SM SCT050 PROB30 2619/2623 4SM TSRA
      BKN030CB=

USA.gov is the U.S. government's official web portal to all federal, state and local government web resources and services.